createdAt,value
2022-12-05T00:02:03.193Z,24.27
2022-12-05T00:04:53.512Z,19.97
2022-12-05T00:07:40.452Z,20.30
2022-12-05T00:10:28.084Z,23.73
2022-12-05T00:13:16.909Z,20.23
2022-12-05T00:16:03.610Z,23.23
2022-12-05T00:18:51.331Z,22.63
2022-12-05T00:21:39.603Z,20.60
2022-12-05T00:24:26.678Z,20.70
2022-12-05T00:27:22.856Z,23.33
2022-12-05T00:30:10.048Z,22.27
2022-12-05T00:32:56.456Z,22.33
2022-12-05T00:35:45.351Z,20.87
2022-12-05T00:38:33.400Z,22.20
2022-12-05T00:41:22.967Z,21.73
2022-12-05T00:44:10.332Z,21.57
2022-12-05T00:46:57.114Z,24.70
2022-12-05T00:49:44.062Z,22.93
2022-12-05T00:52:30.863Z,22.07
2022-12-05T00:55:19.210Z,24.57
2022-12-05T00:58:06.102Z,21.90
2022-12-05T01:00:58.492Z,21.27
2022-12-05T01:03:46.183Z,22.63
2022-12-05T01:06:32.694Z,21.77
2022-12-05T01:09:21.326Z,23.27
2022-12-05T01:12:12.150Z,23.03
2022-12-05T01:14:59.716Z,23.60
2022-12-05T01:17:46.392Z,25.23
2022-12-05T01:20:33.673Z,24.33
2022-12-05T01:23:23.795Z,23.67
2022-12-05T01:26:15.113Z,23.97
2022-12-05T01:29:05.629Z,22.80
2022-12-05T01:31:56.915Z,23.20
2022-12-05T01:34:43.971Z,21.73
2022-12-05T01:37:30.787Z,21.50
2022-12-05T01:40:17.797Z,23.63
2022-12-05T01:43:05.395Z,21.63
2022-12-05T01:45:53.657Z,23.13
2022-12-05T01:48:39.997Z,20.03
2022-12-05T01:51:27.237Z,23.03
2022-12-05T01:54:14.786Z,24.50
2022-12-05T01:57:11.107Z,24.10
2022-12-05T02:00:04.264Z,20.97
2022-12-05T02:03:08.209Z,23.73
2022-12-05T02:05:57.955Z,23.07
2022-12-05T02:08:45.989Z,23.60
2022-12-05T02:11:36.601Z,20.93
2022-12-05T02:14:33.141Z,21.73
2022-12-05T02:17:28.253Z,20.03
2022-12-05T02:20:35.083Z,20.77
2022-12-05T02:23:30.855Z,21.93
2022-12-05T02:26:54.166Z,24.00
2022-12-05T02:30:08.161Z,23.73
2022-12-05T02:33:10.224Z,22.40
2022-12-05T02:36:12.504Z,20.47
2022-12-05T02:39:03.668Z,20.43
2022-12-05T02:41:56.700Z,19.97
2022-12-05T02:44:49.066Z,22.90
2022-12-05T02:47:43.338Z,24.10
2022-12-05T02:50:35.406Z,22.10
2022-12-05T02:53:25.187Z,21.77
2022-12-05T02:56:13.240Z,23.60
2022-12-05T02:59:01.167Z,20.77
2022-12-05T03:01:50.624Z,20.57
2022-12-05T03:04:38.904Z,21.73
2022-12-05T03:07:29.990Z,22.10
2022-12-05T03:10:20.296Z,22.37
2022-12-05T03:13:13.941Z,19.67
2022-12-05T03:16:05.073Z,21.63
2022-12-05T03:18:59.456Z,20.97
2022-12-05T03:21:52.806Z,20.70
2022-12-05T03:24:41.831Z,20.07
2022-12-05T03:27:37.401Z,20.73
2022-12-05T03:30:25.417Z,21.43
2022-12-05T03:33:18.436Z,22.47
2022-12-05T03:36:12.843Z,18.77
2022-12-05T03:39:09.331Z,19.93
2022-12-05T03:42:00.887Z,17.70
2022-12-05T03:44:59.323Z,19.10
2022-12-05T03:47:51.729Z,17.87
2022-12-05T03:50:42.810Z,17.70
2022-12-05T03:53:33.194Z,17.67
2022-12-05T03:56:28.691Z,20.50
2022-12-05T03:59:24.855Z,18.40
2022-12-05T04:02:16.516Z,18.00
2022-12-05T04:05:07.679Z,17.17
2022-12-05T04:07:59.663Z,18.00
2022-12-05T04:10:49.998Z,19.00
2022-12-05T04:13:42.277Z,18.77
2022-12-05T04:16:52.432Z,15.77
2022-12-05T04:20:01.406Z,17.10
2022-12-05T04:22:48.679Z,16.87
2022-12-05T04:25:40.444Z,17.13
2022-12-05T04:28:32.827Z,17.47
2022-12-05T04:31:27.274Z,15.50
2022-12-05T04:34:19.565Z,16.20
2022-12-05T04:37:12.628Z,14.43
2022-12-05T04:40:05.556Z,16.13
2022-12-05T04:42:54.746Z,15.03
2022-12-05T04:45:42.775Z,15.17
2022-12-05T04:48:31.854Z,14.40
2022-12-05T04:51:24.204Z,16.03
2022-12-05T04:54:20.722Z,15.97
2022-12-05T04:57:15.493Z,13.23
2022-12-05T05:00:02.109Z,15.17
2022-12-05T05:02:53.683Z,13.67
2022-12-05T05:05:46.463Z,13.53
2022-12-05T05:08:33.017Z,14.43
2022-12-05T05:11:22.165Z,13.07
2022-12-05T05:14:08.912Z,14.47
2022-12-05T05:16:55.898Z,14.37
2022-12-05T05:19:42.608Z,14.20
2022-12-05T05:22:33.345Z,12.97
2022-12-05T05:25:20.714Z,13.47
2022-12-05T05:28:07.523Z,14.30
2022-12-05T05:30:56.406Z,11.87
2022-12-05T05:33:43.917Z,11.90
2022-12-05T05:36:30.772Z,12.27
2022-12-05T05:39:18.704Z,11.57
2022-12-05T05:42:05.869Z,11.67
2022-12-05T05:44:55.263Z,12.13
2022-12-05T05:47:42.152Z,11.00
2022-12-05T05:50:29.079Z,10.57
2022-12-05T05:53:15.840Z,8.73
2022-12-05T05:56:05.564Z,10.00
2022-12-05T05:59:01.145Z,11.27
2022-12-05T06:01:47.776Z,9.23
2022-12-05T06:04:35.988Z,9.40
2022-12-05T06:07:22.855Z,9.30
2022-12-05T06:10:10.869Z,11.30
2022-12-05T06:13:01.702Z,11.67
2022-12-05T06:15:55.946Z,10.00
2022-12-05T06:18:44.184Z,9.53
2022-12-05T06:21:30.977Z,9.20
2022-12-05T06:24:20.174Z,10.00
2022-12-05T06:27:09.134Z,11.57
2022-12-05T06:29:59.915Z,13.00
2022-12-05T06:32:52.063Z,18.13
2022-12-05T06:35:39.065Z,17.10
2022-12-05T06:38:26.894Z,15.27
2022-12-05T06:41:17.962Z,11.53
2022-12-05T06:44:07.407Z,10.03
2022-12-05T06:46:55.718Z,9.50
2022-12-05T06:49:42.861Z,12.40
2022-12-05T06:52:31.903Z,9.60
2022-12-05T06:55:18.827Z,10.07
2022-12-05T06:58:05.902Z,15.43
2022-12-05T07:01:10.580Z,12.33
2022-12-05T07:03:59.318Z,12.00
2022-12-05T07:06:51.099Z,9.40
2022-12-05T07:09:58.035Z,10.07
2022-12-05T07:12:44.648Z,8.13
2022-12-05T07:15:35.720Z,9.27
2022-12-05T07:18:24.665Z,9.63
2022-12-05T07:21:22.380Z,11.60
2022-12-05T07:24:11.519Z,8.70
2022-12-05T07:27:00.295Z,8.73
2022-12-05T07:29:49.494Z,9.70
2022-12-05T07:32:46.218Z,8.47
2022-12-05T07:35:34.856Z,8.10
2022-12-05T07:38:24.317Z,8.57
2022-12-05T07:41:19.620Z,12.43
2022-12-05T07:44:11.173Z,11.03
2022-12-05T07:47:05.163Z,9.37
2022-12-05T07:49:56.300Z,9.63
2022-12-05T07:52:48.184Z,9.37
2022-12-05T07:55:36.369Z,9.97
2022-12-05T07:58:25.237Z,10.73
2022-12-05T08:01:25.497Z,10.67
2022-12-05T08:04:17.484Z,8.83
2022-12-05T08:07:06.228Z,10.07
2022-12-05T08:09:57.236Z,10.50
2022-12-05T08:12:48.128Z,8.67
2022-12-05T08:15:49.771Z,8.50
2022-12-05T08:18:42.092Z,8.03
2022-12-05T08:21:35.648Z,8.20
2022-12-05T08:24:23.018Z,7.20
2022-12-05T08:27:11.824Z,9.63
2022-12-05T08:30:02.146Z,10.13
2022-12-05T08:32:51.084Z,9.40
2022-12-05T08:35:40.617Z,8.63
2022-12-05T08:38:29.226Z,7.97
2022-12-05T08:41:19.042Z,8.57
2022-12-05T08:44:08.317Z,9.37
2022-12-05T08:46:58.753Z,8.47
2022-12-05T08:49:49.942Z,8.10
2022-12-05T08:52:36.964Z,8.20
2022-12-05T08:55:30.824Z,9.40
2022-12-05T08:58:20.442Z,8.73
2022-12-05T09:01:12.126Z,7.47
2022-12-05T09:04:01.669Z,8.13
2022-12-05T09:07:02.374Z,8.73
2022-12-05T09:09:49.975Z,8.27
2022-12-05T09:12:39.141Z,7.80
2022-12-05T09:15:35.819Z,7.60
2022-12-05T09:18:26.571Z,8.17
2022-12-05T09:21:21.824Z,8.47
2022-12-05T09:24:11.288Z,10.07
2022-12-05T09:26:59.973Z,9.60
2022-12-05T09:29:48.709Z,9.00
2022-12-05T09:32:35.990Z,9.37
2022-12-05T09:35:24.707Z,10.37
2022-12-05T09:38:15.135Z,10.47
2022-12-05T09:41:15.386Z,10.47
2022-12-05T09:44:09.227Z,11.30
2022-12-05T09:47:02.916Z,10.20
2022-12-05T09:49:59.668Z,10.00
2022-12-05T09:53:01.060Z,10.43
2022-12-05T09:55:54.770Z,9.83
2022-12-05T09:58:48.353Z,10.53
2022-12-05T10:01:42.903Z,9.80
2022-12-05T10:04:49.855Z,9.83
2022-12-05T10:07:51.521Z,11.17
2022-12-05T10:11:08.584Z,10.47
2022-12-05T10:14:10.528Z,9.97
2022-12-05T10:17:04.865Z,10.27
2022-12-05T10:19:57.000Z,11.13
2022-12-05T10:23:55.950Z,11.30
2022-12-05T10:26:39.648Z,10.57
2022-12-05T10:29:34.598Z,11.50
2022-12-05T10:32:34.378Z,11.80
2022-12-05T10:35:29.343Z,12.13
2022-12-05T10:38:26.841Z,11.80
2022-12-05T10:41:21.554Z,13.73
2022-12-05T10:44:10.017Z,13.30
2022-12-05T10:46:58.124Z,11.67
2022-12-05T10:49:47.379Z,11.97
2022-12-05T10:52:39.041Z,12.57
2022-12-05T10:55:36.628Z,11.90
2022-12-05T10:58:31.627Z,15.27
2022-12-05T11:01:18.369Z,13.70
2022-12-05T11:07:38.097Z,14.67
2022-12-05T11:10:29.686Z,12.97
2022-12-05T11:13:23.817Z,14.00
2022-12-05T11:16:30.191Z,13.77
2022-12-05T11:19:32.131Z,14.53
2022-12-05T11:22:25.786Z,14.63
2022-12-05T11:25:27.460Z,12.23
2022-12-05T11:28:39.862Z,13.33
2022-12-05T11:31:52.610Z,13.83
2022-12-05T11:34:50.741Z,13.73
2022-12-05T11:37:46.344Z,13.80
2022-12-05T11:40:45.213Z,12.77
2022-12-05T11:43:53.816Z,14.13
2022-12-05T11:47:01.502Z,14.23
2022-12-05T11:50:11.906Z,13.13
2022-12-05T11:53:19.251Z,12.63
2022-12-05T11:56:19.273Z,14.00
2022-12-05T11:59:29.653Z,14.23
2022-12-05T12:02:39.682Z,13.57
2022-12-05T12:05:44.461Z,12.90
2022-12-05T12:08:39.437Z,13.47
2022-12-05T12:11:37.708Z,13.50
2022-12-05T12:14:52.744Z,13.47
2022-12-05T12:17:48.376Z,13.53
2022-12-05T12:20:54.133Z,13.30
2022-12-05T12:24:00.671Z,12.60
2022-12-05T12:27:02.359Z,13.97
2022-12-05T12:30:01.320Z,14.33
2022-12-05T12:33:27.424Z,14.17
2022-12-05T12:36:35.724Z,14.17
2022-12-05T12:39:38.912Z,13.10
2022-12-05T12:42:35.087Z,13.97
2022-12-05T12:45:45.289Z,13.67
2022-12-05T12:49:08.245Z,13.67
2022-12-05T12:52:11.670Z,12.53
2022-12-05T12:55:23.632Z,14.27
2022-12-05T12:58:31.482Z,12.60
2022-12-05T13:01:32.210Z,13.20
2022-12-05T13:04:26.410Z,12.23
2022-12-05T13:07:30.317Z,12.00
2022-12-05T13:10:33.169Z,12.83
2022-12-05T13:13:33.615Z,11.30
2022-12-05T13:16:31.145Z,12.13
2022-12-05T13:19:45.908Z,12.67
2022-12-05T13:22:36.723Z,13.30
2022-12-05T13:25:31.551Z,11.83
2022-12-05T13:28:35.102Z,11.27
2022-12-05T13:31:38.625Z,11.87
2022-12-05T13:34:52.043Z,12.23
2022-12-05T13:38:05.330Z,12.23
2022-12-05T13:41:30.477Z,12.87
2022-12-05T13:44:34.708Z,11.60
2022-12-05T13:47:55.031Z,13.70
2022-12-05T13:50:54.096Z,12.23
2022-12-05T13:54:00.845Z,12.20
2022-12-05T13:57:02.999Z,11.80
2022-12-05T14:00:06.553Z,12.03
2022-12-05T14:03:05.337Z,12.93
2022-12-05T14:05:59.561Z,12.07
2022-12-05T14:08:58.914Z,11.80
2022-12-05T14:12:31.581Z,12.20
2022-12-05T14:15:50.290Z,11.03
2022-12-05T14:18:49.892Z,11.13
2022-12-05T14:21:44.083Z,11.23
2022-12-05T14:24:38.144Z,11.90
2022-12-05T14:27:44.281Z,10.90
2022-12-05T14:30:46.159Z,11.17
2022-12-05T14:33:34.059Z,10.93
2022-12-05T14:36:55.888Z,11.77
2022-12-05T14:39:53.240Z,10.50
2022-12-05T14:42:58.914Z,10.67
2022-12-05T14:45:59.315Z,11.33
2022-12-05T14:48:50.639Z,10.40
2022-12-05T14:52:11.071Z,11.03
2022-12-05T14:55:07.341Z,11.03
2022-12-05T14:57:54.980Z,10.27
2022-12-05T15:00:48.088Z,9.83
2022-12-05T15:03:39.756Z,11.23
2022-12-05T15:06:27.008Z,11.77
2022-12-05T15:09:38.233Z,10.17
2022-12-05T15:12:46.437Z,10.23
2022-12-05T15:15:42.823Z,10.40
2022-12-05T15:18:36.219Z,10.77
2022-12-05T15:21:29.028Z,10.53
2022-12-05T15:24:17.865Z,11.07
2022-12-05T15:27:15.165Z,10.17
2022-12-05T15:30:10.540Z,11.00
2022-12-05T15:33:08.949Z,10.27
2022-12-05T15:35:57.252Z,9.97
2022-12-05T15:38:46.002Z,11.33
2022-12-05T15:41:32.869Z,10.43
2022-12-05T15:44:25.251Z,11.37
2022-12-05T15:47:30.726Z,10.80
2022-12-05T15:50:25.041Z,11.30
2022-12-05T15:53:22.651Z,10.53
2022-12-05T15:56:16.402Z,10.47
2022-12-05T15:59:21.242Z,10.33
2022-12-05T16:02:25.487Z,11.20
2022-12-05T16:05:36.701Z,11.00
2022-12-05T16:08:31.758Z,10.30
2022-12-05T16:11:19.294Z,12.33
2022-12-05T16:14:11.349Z,12.60
2022-12-05T16:17:05.883Z,12.73
2022-12-05T16:19:53.282Z,15.07
2022-12-05T16:22:49.093Z,13.93
2022-12-05T16:25:38.676Z,15.10
2022-12-05T16:28:27.506Z,15.53
2022-12-05T16:31:24.737Z,15.93
2022-12-05T16:34:18.583Z,13.97
2022-12-05T16:37:08.604Z,17.90
2022-12-05T16:40:01.106Z,14.97
2022-12-05T16:42:50.200Z,17.07
2022-12-05T16:45:42.816Z,13.37
2022-12-05T16:48:31.322Z,15.47
2022-12-05T16:51:28.798Z,16.57
2022-12-05T16:54:15.372Z,13.80
2022-12-05T16:57:08.561Z,13.63
2022-12-05T16:59:57.278Z,17.53
2022-12-05T17:02:43.786Z,14.50
2022-12-05T17:05:44.559Z,16.90
2022-12-05T17:08:35.431Z,18.10
2022-12-05T17:11:25.110Z,17.30
2022-12-05T17:14:18.216Z,15.40
2022-12-05T17:17:11.067Z,18.60
2022-12-05T17:19:59.746Z,17.77
2022-12-05T17:22:48.717Z,18.80
2022-12-05T17:25:44.074Z,18.23
2022-12-05T17:28:30.835Z,19.50
2022-12-05T17:31:41.404Z,15.00
2022-12-05T17:34:33.110Z,17.43
2022-12-05T17:37:20.334Z,20.60
2022-12-05T17:40:13.416Z,17.77
2022-12-05T17:43:02.717Z,19.27
2022-12-05T17:45:49.470Z,20.60
2022-12-05T17:48:37.553Z,21.07
2022-12-05T17:51:26.514Z,15.83
2022-12-05T17:54:15.157Z,19.40
2022-12-05T17:57:02.010Z,17.33
2022-12-05T17:59:48.433Z,13.80
2022-12-05T18:02:35.330Z,13.73
2022-12-05T18:05:25.878Z,18.83
2022-12-05T18:08:13.604Z,18.07
2022-12-05T18:11:02.674Z,20.33
2022-12-05T18:13:49.089Z,14.83
2022-12-05T18:16:35.955Z,15.60
2022-12-05T18:19:23.294Z,15.93
2022-12-05T18:22:21.863Z,15.53
2022-12-05T18:25:11.776Z,16.57
2022-12-05T18:28:04.096Z,19.17
2022-12-05T18:30:52.743Z,14.80
2022-12-05T18:33:42.051Z,15.00
2022-12-05T18:36:28.494Z,14.30
2022-12-05T18:39:24.648Z,20.50
2022-12-05T18:42:15.461Z,18.43
2022-12-05T18:45:05.419Z,16.50
2022-12-05T18:47:54.668Z,19.57
2022-12-05T18:50:47.140Z,17.97
2022-12-05T18:53:35.885Z,17.63
2022-12-05T18:56:30.635Z,16.87
2022-12-05T18:59:22.367Z,17.83
2022-12-05T19:02:11.487Z,17.03
2022-12-05T19:04:59.422Z,18.97
2022-12-05T19:07:47.710Z,15.00
2022-12-05T19:10:37.143Z,14.20
2022-12-05T19:13:25.362Z,17.07
2022-12-05T19:16:17.381Z,18.90
2022-12-05T19:19:11.222Z,16.73
2022-12-05T19:22:05.653Z,19.17
2022-12-05T19:24:52.422Z,16.07
2022-12-05T19:27:39.208Z,18.27
2022-12-05T19:30:27.396Z,16.97
2022-12-05T19:33:16.340Z,19.20
2022-12-05T19:36:05.080Z,19.03
2022-12-05T19:38:59.213Z,18.70
2022-12-05T19:41:50.299Z,20.97
2022-12-05T19:44:37.189Z,16.83
2022-12-05T19:47:29.717Z,21.07
2022-12-05T19:50:18.731Z,18.63
2022-12-05T19:53:05.295Z,16.60
2022-12-05T19:55:55.260Z,17.70
2022-12-05T19:58:45.307Z,16.23
2022-12-05T20:01:41.177Z,18.90
2022-12-05T20:04:29.508Z,15.27
2022-12-05T20:07:18.863Z,14.63
2022-12-05T20:10:07.968Z,14.20
2022-12-05T20:12:54.508Z,14.97
2022-12-05T20:15:43.787Z,15.47
2022-12-05T20:18:31.066Z,15.53
2022-12-05T20:21:23.264Z,17.50
2022-12-05T20:24:09.916Z,15.07
2022-12-05T20:26:58.341Z,13.97
2022-12-05T20:29:45.769Z,14.10
2022-12-05T20:32:32.568Z,15.13
2022-12-05T20:35:24.000Z,15.83
2022-12-05T20:38:15.338Z,15.97
2022-12-05T20:41:04.838Z,14.47
2022-12-05T20:43:55.208Z,15.80
2022-12-05T20:46:44.397Z,15.47
2022-12-05T20:49:30.848Z,15.90
2022-12-05T20:52:17.828Z,15.23
2022-12-05T20:55:07.349Z,16.73
2022-12-05T20:57:56.106Z,16.47
2022-12-05T21:00:45.829Z,17.53
2022-12-05T21:03:35.625Z,15.00
2022-12-05T21:06:26.254Z,17.83
2022-12-05T21:09:23.015Z,18.70
2022-12-05T21:12:13.299Z,16.93
2022-12-05T21:15:00.186Z,19.67
2022-12-05T21:17:47.175Z,17.67
2022-12-05T21:20:37.611Z,16.50
2022-12-05T21:23:31.173Z,18.70
2022-12-05T21:26:19.240Z,19.17
2022-12-05T21:29:11.109Z,19.17
2022-12-05T21:31:57.618Z,17.30
2022-12-05T21:34:44.515Z,18.73
2022-12-05T21:37:31.411Z,18.27
2022-12-05T21:40:18.308Z,19.50
2022-12-05T21:43:05.273Z,20.63
2022-12-05T21:45:54.416Z,18.97
2022-12-05T21:49:30.963Z,18.50
2022-12-05T21:52:17.587Z,18.87
2022-12-05T21:55:04.640Z,16.77
2022-12-05T21:57:51.341Z,20.40
2022-12-05T22:00:41.435Z,17.80
2022-12-05T22:03:29.655Z,16.77
2022-12-05T22:06:16.488Z,18.37
2022-12-05T22:09:03.494Z,16.30
2022-12-05T22:11:50.219Z,15.80
2022-12-05T22:14:37.093Z,17.60
2022-12-05T22:17:24.628Z,14.83
2022-12-05T22:20:12.851Z,17.67
2022-12-05T22:22:59.565Z,14.33
2022-12-05T22:25:56.811Z,14.40
2022-12-05T22:28:43.861Z,12.87
2022-12-05T22:31:31.119Z,13.47
2022-12-05T22:34:17.959Z,13.73
2022-12-05T22:37:05.842Z,12.50
2022-12-05T22:39:53.166Z,13.53
2022-12-05T22:42:40.347Z,13.87
2022-12-05T22:45:27.353Z,13.60
2022-12-05T22:48:14.079Z,11.03
2022-12-05T22:51:01.871Z,12.93
2022-12-05T22:53:51.587Z,11.93
2022-12-05T22:56:38.188Z,12.57
2022-12-05T22:59:29.247Z,13.10
2022-12-05T23:02:16.475Z,12.17
2022-12-05T23:05:03.491Z,12.50
2022-12-05T23:07:50.439Z,12.47
2022-12-05T23:10:41.628Z,11.43
2022-12-05T23:13:28.768Z,11.60
2022-12-05T23:16:21.536Z,12.07
2022-12-05T23:19:09.375Z,13.00
2022-12-05T23:21:56.427Z,12.43
2022-12-05T23:24:43.280Z,12.17
2022-12-05T23:27:34.724Z,12.73
2022-12-05T23:30:21.748Z,11.53
2022-12-05T23:33:08.262Z,11.80
2022-12-05T23:35:55.206Z,10.73
2022-12-05T23:38:47.253Z,10.87
2022-12-05T23:41:36.547Z,11.40
2022-12-05T23:44:25.191Z,11.33
2022-12-05T23:47:13.859Z,10.40
2022-12-05T23:50:00.831Z,10.87
2022-12-05T23:52:48.171Z,10.43
2022-12-05T23:55:35.054Z,9.80
2022-12-05T23:58:22.141Z,10.13
